サル島 の空港の天気 - METARとTAF

アミルカル・カブラル国際空港 ( GVAC / SID ) - カーボベルデ サル島
飛行場実況気象(Metar)
観測時間04/25 05:00 CVT (04/25 06:00 UTC)
風向・風速北東 6m/s
視程10km以上
天気現象
全天の4割程度の雲 雲底高度 430m
気温20℃
湿度73%
気圧1016hPa
METARGVAC 250600Z 04012KT 9999 SCT014 20/15 Q1016 NOSIG
過去の天気等 Google飛行場航空写真 Wunderground天気予報

過去48時間のMETAR

飛行場予報(TAF)
発表時間: 4/25 04:00 CVT (4/25 05:00 UTC)
予報対象時間: 25日5時 CVT ~ 26日11時 CVT
風向・風速北東 8m/s
視程10km以上
全天の8割程度の雲 雲底高度 430m
25日18時 CVT ~ 25日20時 CVT に徐々に
少しの雲 雲底高度 430m
TAF GVAC 250500Z 2506/2612 05016KT 9999 BKN014
BECMG 2519/2521 FEW014